createdAt,value
2018-08-12T00:00:55.899Z,0.00
2018-08-12T00:01:55.891Z,0.00
2018-08-12T00:02:55.876Z,0.00
2018-08-12T00:03:55.900Z,0.00
2018-08-12T00:04:55.856Z,0.00
2018-08-12T00:05:55.843Z,0.00
2018-08-12T00:06:55.836Z,0.00
2018-08-12T00:07:55.868Z,0.00
2018-08-12T00:08:55.812Z,0.00
2018-08-12T00:09:56.644Z,0.00
2018-08-12T00:10:55.794Z,0.00
2018-08-12T00:11:55.780Z,0.00
2018-08-12T00:12:55.831Z,0.00
2018-08-12T00:13:55.782Z,0.00
2018-08-12T00:14:55.741Z,0.00
2018-08-12T00:15:55.764Z,0.00
2018-08-12T00:16:55.718Z,0.00
2018-08-12T00:17:55.714Z,0.00
2018-08-12T00:18:55.697Z,0.00
2018-08-12T00:19:55.690Z,0.00
2018-08-12T00:20:55.730Z,0.00
2018-08-12T00:21:55.667Z,0.00
2018-08-12T00:22:55.651Z,0.00
2018-08-12T00:23:55.660Z,0.00
2018-08-12T00:24:55.630Z,0.00
2018-08-12T00:25:55.658Z,0.00
2018-08-12T00:26:55.609Z,0.00
2018-08-12T00:27:55.600Z,0.00
2018-08-12T00:28:55.626Z,0.00
2018-08-12T00:29:55.615Z,0.00
2018-08-12T00:30:55.566Z,0.00
2018-08-12T00:31:55.579Z,0.00
2018-08-12T00:32:55.544Z,0.00
2018-08-12T00:33:55.555Z,0.00
2018-08-12T00:34:55.518Z,0.00
2018-08-12T00:35:55.535Z,0.00
2018-08-12T00:36:55.522Z,0.00
2018-08-12T00:37:55.521Z,0.00
2018-08-12T00:38:55.472Z,0.00
2018-08-12T00:39:55.470Z,0.00
2018-08-12T00:40:55.492Z,0.00
2018-08-12T00:41:55.439Z,0.00
2018-08-12T00:42:55.430Z,0.00
2018-08-12T00:43:55.431Z,0.00
2018-08-12T00:44:55.404Z,0.00
2018-08-12T00:45:55.430Z,0.00
2018-08-12T00:46:55.458Z,0.00
2018-08-12T00:47:55.369Z,0.00
2018-08-12T00:48:55.361Z,0.00
2018-08-12T00:49:56.152Z,0.00
2018-08-12T00:50:55.336Z,0.00
2018-08-12T00:51:55.385Z,0.00
2018-08-12T00:52:55.315Z,0.00
2018-08-12T00:53:55.308Z,0.00
2018-08-12T00:54:55.295Z,0.00
2018-08-12T00:55:55.280Z,0.00
2018-08-12T00:56:55.302Z,0.00
2018-08-12T00:57:55.276Z,0.00
2018-08-12T00:58:55.275Z,0.00
2018-08-12T00:59:55.235Z,0.00
2018-08-12T01:00:55.254Z,0.00
2018-08-12T01:01:55.213Z,0.00
2018-08-12T01:02:55.204Z,0.00
2018-08-12T01:03:55.222Z,0.00
2018-08-12T01:04:55.187Z,0.00
2018-08-12T01:05:55.175Z,0.00
2018-08-12T01:06:55.199Z,0.00
2018-08-12T01:07:55.148Z,0.00
2018-08-12T01:08:55.177Z,0.00
2018-08-12T01:09:55.122Z,0.00
2018-08-12T01:10:55.128Z,0.00
2018-08-12T01:11:55.109Z,0.00
2018-08-12T01:12:55.102Z,0.00
2018-08-12T01:13:55.160Z,0.00
2018-08-12T01:14:55.104Z,0.00
2018-08-12T01:15:55.119Z,0.00
2018-08-12T01:16:55.044Z,0.00
2018-08-12T01:17:55.033Z,0.00
2018-08-12T01:18:55.044Z,0.00
2018-08-12T01:19:55.043Z,0.00
2018-08-12T01:20:55.009Z,0.00
2018-08-12T01:21:54.987Z,0.00
2018-08-12T01:22:54.988Z,0.00
2018-08-12T01:23:54.975Z,0.00
2018-08-12T01:24:54.987Z,0.00
2018-08-12T01:25:54.943Z,0.00
2018-08-12T01:26:54.935Z,0.00
2018-08-12T01:27:54.924Z,0.00
2018-08-12T01:28:54.910Z,0.00
2018-08-12T01:29:54.997Z,0.00
2018-08-12T01:30:54.899Z,0.00
2018-08-12T01:31:54.874Z,0.00
2018-08-12T01:32:54.869Z,0.00
2018-08-12T01:33:54.859Z,0.00
2018-08-12T01:34:54.873Z,0.00
2018-08-12T01:35:54.956Z,0.00
2018-08-12T01:36:54.867Z,0.00
2018-08-12T01:37:54.816Z,0.00
2018-08-12T01:38:54.796Z,0.00
2018-08-12T01:39:54.813Z,0.00
2018-08-12T01:40:54.809Z,0.00
2018-08-12T01:41:54.766Z,0.00
2018-08-12T01:42:54.756Z,0.00
2018-08-12T01:43:54.754Z,0.00
2018-08-12T01:44:54.728Z,0.00
2018-08-12T01:45:54.756Z,0.00
2018-08-12T01:46:54.703Z,0.00
2018-08-12T01:47:54.696Z,0.00
2018-08-12T01:48:54.753Z,0.00
2018-08-12T01:49:54.670Z,0.00
2018-08-12T01:50:54.706Z,0.00
2018-08-12T01:51:54.650Z,0.00
2018-08-12T01:52:54.642Z,0.00
2018-08-12T01:53:54.632Z,0.00
2018-08-12T01:54:54.641Z,0.00
2018-08-12T01:55:54.606Z,0.00
2018-08-12T01:56:54.604Z,0.00
2018-08-12T01:57:54.623Z,0.00
2018-08-12T01:58:54.573Z,0.00
2018-08-12T01:59:54.563Z,0.00
2018-08-12T02:00:54.545Z,0.00
2018-08-12T02:01:54.567Z,0.00
2018-08-12T02:02:54.526Z,0.00
2018-08-12T02:03:54.520Z,0.00
2018-08-12T02:04:54.511Z,0.00
2018-08-12T02:05:54.499Z,0.00
2018-08-12T02:06:54.521Z,0.00
2018-08-12T02:07:54.464Z,0.00
2018-08-12T02:08:54.457Z,0.00
2018-08-12T02:09:54.466Z,0.00
2018-08-12T02:10:54.434Z,0.00
2018-08-12T02:11:54.448Z,0.00
2018-08-12T02:12:54.485Z,0.00
2018-08-12T02:13:54.397Z,0.00
2018-08-12T02:14:54.419Z,0.00
2018-08-12T02:15:54.395Z,0.00
2018-08-12T02:16:54.416Z,0.00
2018-08-12T02:17:54.352Z,0.00
2018-08-12T02:18:54.340Z,0.00
2018-08-12T02:19:54.331Z,0.00
2018-08-12T02:20:54.318Z,0.00
2018-08-12T02:21:54.356Z,0.00
2018-08-12T02:22:54.327Z,0.00
2018-08-12T02:23:54.288Z,0.00
2018-08-12T02:24:54.272Z,0.00
2018-08-12T02:25:54.263Z,0.00
2018-08-12T02:26:54.253Z,0.00
2018-08-12T02:27:54.310Z,0.00
2018-08-12T02:28:54.340Z,0.00
2018-08-12T02:29:54.222Z,0.00
2018-08-12T02:30:54.208Z,0.00
2018-08-12T02:31:54.201Z,0.00
2018-08-12T02:32:54.248Z,0.00
2018-08-12T02:33:54.206Z,0.00
2018-08-12T02:34:54.166Z,0.00
2018-08-12T02:35:54.149Z,0.00
2018-08-12T02:36:54.170Z,0.00
2018-08-12T02:37:54.132Z,0.00
2018-08-12T02:38:54.116Z,0.00
2018-08-12T02:39:54.121Z,0.00
2018-08-12T02:40:54.133Z,0.00
2018-08-12T02:41:54.108Z,0.00
2018-08-12T02:42:54.095Z,0.00
2018-08-12T02:43:54.063Z,0.00
2018-08-12T02:44:54.054Z,0.00
2018-08-12T02:45:54.046Z,0.00
2018-08-12T02:46:54.029Z,0.00
2018-08-12T02:47:54.076Z,0.00
2018-08-12T02:48:54.056Z,0.00
2018-08-12T02:49:53.995Z,0.00
2018-08-12T02:50:54.008Z,0.00
2018-08-12T02:51:53.972Z,0.00
2018-08-12T02:52:54.010Z,0.00
2018-08-12T02:53:53.989Z,0.00
2018-08-12T02:54:53.965Z,0.00
2018-08-12T02:55:54.005Z,0.00
2018-08-12T02:56:53.917Z,0.00
2018-08-12T02:57:53.905Z,0.00
2018-08-12T02:58:53.899Z,0.00
2018-08-12T02:59:53.949Z,0.00
2018-08-12T03:00:53.884Z,0.00
2018-08-12T03:01:53.857Z,0.00
2018-08-12T03:02:53.884Z,0.00
2018-08-12T03:03:53.844Z,0.00
2018-08-12T03:04:53.853Z,0.00
2018-08-12T03:05:53.812Z,0.00
2018-08-12T03:06:53.804Z,0.00
2018-08-12T03:07:53.848Z,0.00
2018-08-12T03:08:53.780Z,0.00
2018-08-12T03:09:53.764Z,0.00
2018-08-12T03:10:53.817Z,0.00
2018-08-12T03:11:53.750Z,0.00
2018-08-12T03:12:53.738Z,0.00
2018-08-12T03:13:53.728Z,0.00
2018-08-12T03:14:53.742Z,0.00
2018-08-12T03:15:53.731Z,0.00
2018-08-12T03:16:53.692Z,0.00
2018-08-12T03:17:53.688Z,0.00
2018-08-12T03:18:53.709Z,0.00
2018-08-12T03:19:53.667Z,0.00
2018-08-12T03:20:53.650Z,0.00
2018-08-12T03:21:53.670Z,0.00
2018-08-12T03:22:53.625Z,0.00
2018-08-12T03:23:53.618Z,0.00
2018-08-12T03:24:53.635Z,0.00
2018-08-12T03:25:53.590Z,0.00
2018-08-12T03:26:53.604Z,0.00
2018-08-12T03:27:53.577Z,0.00
2018-08-12T03:28:53.557Z,0.00
2018-08-12T03:29:53.622Z,0.00
2018-08-12T03:30:53.586Z,0.00
2018-08-12T03:31:53.533Z,0.00
2018-08-12T03:32:53.573Z,0.00
2018-08-12T03:33:53.501Z,0.00
2018-08-12T03:34:53.551Z,0.00
2018-08-12T03:35:53.538Z,0.00
2018-08-12T03:36:53.499Z,0.00
2018-08-12T03:37:53.453Z,0.00
2018-08-12T03:38:53.456Z,0.00
2018-08-12T03:39:53.433Z,0.00
2018-08-12T03:40:53.422Z,0.00
2018-08-12T03:41:53.461Z,0.00
2018-08-12T03:42:53.441Z,0.00
2018-08-12T03:43:53.400Z,0.00
2018-08-12T03:44:53.376Z,0.00
2018-08-12T03:45:53.426Z,0.00
2018-08-12T03:46:53.358Z,0.00
2018-08-12T03:47:53.356Z,0.00
2018-08-12T03:48:53.396Z,4.00
2018-08-12T03:49:53.384Z,4.00
2018-08-12T03:50:53.374Z,0.00
2018-08-12T03:51:53.313Z,4.00
2018-08-12T03:52:53.288Z,4.00
2018-08-12T03:53:53.290Z,4.00
2018-08-12T03:54:53.478Z,4.00
2018-08-12T03:55:53.254Z,8.00
2018-08-12T03:56:53.240Z,8.00
2018-08-12T03:57:53.268Z,8.00
2018-08-12T03:58:53.220Z,12.00
2018-08-12T03:59:53.219Z,8.00
2018-08-12T04:00:53.199Z,12.00
2018-08-12T04:01:53.188Z,12.00
2018-08-12T04:02:53.210Z,12.00
2018-08-12T04:03:53.183Z,16.00
2018-08-12T04:04:53.201Z,20.00
2018-08-12T04:05:53.152Z,20.00
2018-08-12T04:06:53.163Z,24.00
2018-08-12T04:07:53.175Z,24.00
2018-08-12T04:08:53.106Z,32.00
2018-08-12T04:09:53.242Z,36.00
2018-08-12T04:10:53.083Z,36.00
2018-08-12T04:11:53.188Z,40.00
2018-08-12T04:12:53.111Z,48.00
2018-08-12T04:13:53.050Z,48.00
2018-08-12T04:14:53.051Z,56.00
2018-08-12T04:15:53.029Z,60.00
2018-08-12T04:16:53.011Z,64.00
2018-08-12T04:17:53.067Z,76.00
2018-08-12T04:18:53.004Z,84.00
2018-08-12T04:19:53.002Z,92.00
2018-08-12T04:20:53.012Z,104.00
2018-08-12T04:21:52.959Z,116.00
2018-08-12T04:22:52.952Z,124.00
2018-08-12T04:23:52.937Z,140.00
2018-08-12T04:24:52.923Z,148.00
2018-08-12T04:25:52.960Z,160.00
2018-08-12T04:26:52.904Z,168.00
2018-08-12T04:27:52.900Z,176.00
2018-08-12T04:28:52.878Z,184.00
2018-08-12T04:29:52.879Z,192.00
2018-08-12T04:30:52.890Z,200.00
2018-08-12T04:31:52.859Z,208.00
2018-08-12T04:32:52.835Z,224.00
2018-08-12T04:33:52.827Z,232.00
2018-08-12T04:34:52.810Z,240.00
2018-08-12T04:35:52.846Z,252.00
2018-08-12T04:36:52.795Z,264.00
2018-08-12T04:37:52.777Z,280.00
2018-08-12T04:38:52.781Z,296.00
2018-08-12T04:39:52.751Z,308.00
2018-08-12T04:40:52.779Z,320.00
2018-08-12T04:41:52.762Z,332.00
2018-08-12T04:42:52.724Z,344.00
2018-08-12T04:43:52.746Z,356.00
2018-08-12T04:44:52.709Z,368.00
2018-08-12T04:45:52.699Z,380.00
2018-08-12T04:46:52.677Z,396.00
2018-08-12T04:47:52.669Z,408.00
2018-08-12T04:48:52.683Z,420.00
2018-08-12T04:49:52.639Z,424.00
2018-08-12T04:50:52.664Z,432.00
2018-08-12T04:51:52.651Z,440.00
2018-08-12T04:52:52.605Z,452.00
2018-08-12T04:53:52.624Z,464.00
2018-08-12T04:54:52.609Z,480.00
2018-08-12T04:55:52.592Z,492.00
2018-08-12T04:56:52.599Z,500.00
2018-08-12T04:57:52.554Z,508.00
2018-08-12T04:58:52.549Z,512.00
2018-08-12T04:59:52.560Z,512.00
2018-08-12T05:00:52.530Z,512.00
2018-08-12T05:01:52.507Z,512.00
2018-08-12T05:02:52.501Z,508.00
2018-08-12T05:03:52.486Z,500.00
2018-08-12T05:04:52.506Z,492.00
2018-08-12T05:05:52.468Z,484.00
2018-08-12T05:06:52.452Z,480.00
2018-08-12T05:07:52.453Z,480.00
2018-08-12T05:08:52.466Z,480.00
2018-08-12T05:09:52.421Z,480.00
2018-08-12T05:10:52.465Z,476.00
2018-08-12T05:11:52.468Z,476.00
2018-08-12T05:12:52.393Z,472.00
2018-08-12T05:13:52.374Z,472.00
2018-08-12T05:14:52.415Z,464.00
2018-08-12T05:15:52.395Z,472.00
2018-08-12T05:16:52.345Z,476.00
2018-08-12T05:17:52.355Z,484.00
2018-08-12T05:18:52.322Z,488.00
2018-08-12T05:19:52.317Z,492.00
2018-08-12T05:20:52.291Z,500.00
2018-08-12T05:21:52.293Z,508.00
2018-08-12T05:22:52.307Z,528.00
2018-08-12T05:23:52.441Z,556.00
2018-08-12T05:24:52.255Z,592.00
2018-08-12T05:25:52.244Z,628.00
2018-08-12T05:26:52.283Z,664.00
2018-08-12T05:27:52.217Z,696.00
2018-08-12T05:28:52.205Z,720.00
2018-08-12T05:29:52.207Z,748.00
2018-08-12T05:30:52.200Z,764.00
2018-08-12T05:31:52.197Z,776.00
2018-08-12T05:32:52.162Z,780.00
2018-08-12T05:33:52.149Z,784.00
2018-08-12T05:34:52.177Z,780.00
2018-08-12T05:35:52.128Z,772.00
2018-08-12T05:36:52.127Z,768.00
2018-08-12T05:37:52.102Z,752.00
2018-08-12T05:38:52.124Z,728.00
2018-08-12T05:39:52.093Z,696.00
2018-08-12T05:40:52.101Z,656.00
2018-08-12T05:41:52.067Z,612.00
2018-08-12T05:42:52.057Z,596.00
2018-08-12T05:43:52.041Z,588.00
2018-08-12T05:44:52.057Z,604.00
2018-08-12T05:45:52.063Z,632.00
2018-08-12T05:46:52.039Z,660.00
2018-08-12T05:47:52.002Z,680.00
2018-08-12T05:48:52.017Z,696.00
2018-08-12T05:49:51.976Z,700.00
2018-08-12T05:50:51.958Z,700.00
2018-08-12T05:51:51.948Z,680.00
2018-08-12T05:52:51.958Z,688.00
2018-08-12T05:53:51.929Z,692.00
2018-08-12T05:54:51.946Z,704.00
2018-08-12T05:55:51.898Z,708.00
2018-08-12T05:56:51.931Z,716.00
2018-08-12T05:57:51.880Z,732.00
2018-08-12T05:58:51.882Z,756.00
2018-08-12T05:59:51.888Z,800.00
2018-08-12T06:00:51.850Z,856.00
2018-08-12T06:01:51.909Z,840.00
2018-08-12T06:02:51.898Z,844.00
2018-08-12T06:03:51.817Z,848.00
2018-08-12T06:04:51.826Z,840.00
2018-08-12T06:05:51.791Z,812.00
2018-08-12T06:06:51.802Z,800.00
2018-08-12T06:07:51.767Z,812.00
2018-08-12T06:08:51.775Z,816.00
2018-08-12T06:09:51.797Z,812.00
2018-08-12T06:10:51.735Z,788.00
2018-08-12T06:11:51.724Z,812.00
2018-08-12T06:12:51.710Z,848.00
2018-08-12T06:13:51.697Z,888.00
2018-08-12T06:14:51.757Z,912.00
2018-08-12T06:15:51.680Z,996.00
2018-08-12T06:16:51.668Z,1092.00
2018-08-12T06:17:51.656Z,1084.00
2018-08-12T06:18:51.666Z,996.00
2018-08-12T06:19:51.695Z,940.00
2018-08-12T06:20:51.622Z,920.00
2018-08-12T06:21:51.614Z,936.00
2018-08-12T06:22:51.654Z,984.00
2018-08-12T06:23:51.611Z,896.00
2018-08-12T06:24:51.583Z,880.00
2018-08-12T06:25:51.641Z,892.00
2018-08-12T06:26:51.581Z,900.00
2018-08-12T06:27:51.568Z,896.00
2018-08-12T06:28:51.534Z,908.00
2018-08-12T06:29:51.527Z,924.00
2018-08-12T06:30:51.557Z,948.00
2018-08-12T06:31:51.504Z,1028.00
2018-08-12T06:32:51.491Z,1140.00
2018-08-12T06:33:51.476Z,1200.00
2018-08-12T06:34:51.497Z,1204.00
2018-08-12T06:35:51.498Z,1168.00
2018-08-12T06:36:51.449Z,1148.00
2018-08-12T06:37:51.467Z,1184.00
2018-08-12T06:38:51.427Z,1272.00
2018-08-12T06:39:51.460Z,1372.00
2018-08-12T06:40:51.421Z,1548.00
2018-08-12T06:41:51.384Z,1752.00
2018-08-12T06:42:51.433Z,1948.00
2018-08-12T06:43:51.405Z,2096.00
2018-08-12T06:44:51.352Z,2220.00
2018-08-12T06:45:51.339Z,2348.00
2018-08-12T06:46:51.373Z,2280.00
2018-08-12T06:47:51.366Z,2156.00
2018-08-12T06:48:51.303Z,2092.00
2018-08-12T06:49:51.310Z,1972.00
2018-08-12T06:50:51.298Z,1780.00
2018-08-12T06:51:51.306Z,1576.00
2018-08-12T06:52:51.260Z,1636.00
2018-08-12T06:53:51.255Z,1708.00
2018-08-12T06:54:51.291Z,1876.00
2018-08-12T06:55:51.224Z,2076.00
2018-08-12T06:56:51.221Z,2152.00
2018-08-12T06:57:51.200Z,2136.00
2018-08-12T06:58:51.187Z,2148.00
2018-08-12T06:59:51.221Z,2136.00
2018-08-12T07:00:51.207Z,2096.00
2018-08-12T07:01:51.202Z,2060.00
2018-08-12T07:02:51.147Z,2028.00
2018-08-12T07:03:51.150Z,2000.00
2018-08-12T07:04:51.127Z,2000.00
2018-08-12T07:05:51.231Z,2024.00
2018-08-12T07:06:51.122Z,2024.00
2018-08-12T07:07:51.121Z,2032.00
2018-08-12T07:08:51.092Z,2060.00
2018-08-12T07:09:51.077Z,2104.00
2018-08-12T07:10:51.073Z,2192.00
2018-08-12T07:11:51.066Z,2372.00
2018-08-12T07:12:51.097Z,2396.00
2018-08-12T07:13:51.030Z,2368.00
2018-08-12T07:14:51.012Z,2244.00
2018-08-12T07:15:51.104Z,2172.00
2018-08-12T07:16:50.992Z,2288.00
2018-08-12T07:17:51.022Z,2260.00
2018-08-12T07:18:50.966Z,2188.00
2018-08-12T07:19:50.985Z,2192.00
2018-08-12T07:20:50.940Z,2156.00
2018-08-12T07:21:50.969Z,2168.00
2018-08-12T07:22:50.986Z,2112.00
2018-08-12T07:23:50.980Z,1904.00
2018-08-12T07:24:50.951Z,1736.00
2018-08-12T07:25:51.809Z,1688.00
2018-08-12T07:26:50.874Z,1608.00
2018-08-12T07:27:50.892Z,1524.00
2018-08-12T07:28:50.889Z,1484.00
2018-08-12T07:29:50.867Z,1504.00
2018-08-12T07:30:50.837Z,1560.00
2018-08-12T07:31:50.869Z,1560.00
2018-08-12T07:32:50.842Z,1656.00
2018-08-12T07:33:50.805Z,1716.00
2018-08-12T07:34:50.795Z,1796.00
2018-08-12T07:35:51.172Z,1880.00
2018-08-12T07:36:50.764Z,1940.00
2018-08-12T07:37:50.751Z,1968.00
2018-08-12T07:38:50.969Z,1864.00
2018-08-12T07:39:50.758Z,1804.00
2018-08-12T07:40:50.750Z,1868.00
2018-08-12T07:41:50.728Z,1760.00
2018-08-12T07:42:50.729Z,1716.00
2018-08-12T07:43:50.721Z,1572.00
2018-08-12T07:44:50.743Z,1512.00
2018-08-12T07:45:50.675Z,1464.00
2018-08-12T07:46:50.655Z,1404.00
2018-08-12T07:47:50.680Z,1360.00
2018-08-12T07:48:50.667Z,1368.00
2018-08-12T07:49:50.645Z,1424.00
2018-08-12T07:50:50.638Z,1392.00
2018-08-12T07:51:50.593Z,1348.00
2018-08-12T07:52:50.582Z,1356.00
2018-08-12T07:53:50.573Z,1356.00
2018-08-12T07:54:50.565Z,1332.00
2018-08-12T07:55:50.659Z,1328.00
2018-08-12T07:56:50.539Z,1300.00
2018-08-12T07:57:50.540Z,1288.00
2018-08-12T07:58:50.569Z,1332.00
2018-08-12T07:59:50.520Z,1368.00
2018-08-12T08:00:50.506Z,1400.00
2018-08-12T08:01:50.509Z,1468.00
2018-08-12T08:02:50.495Z,1488.00
2018-08-12T08:03:50.496Z,1496.00
2018-08-12T08:04:50.451Z,1468.00
2018-08-12T08:05:50.496Z,1460.00
2018-08-12T08:06:50.472Z,1460.00
2018-08-12T08:07:50.418Z,1456.00
2018-08-12T08:08:50.414Z,1492.00
2018-08-12T08:09:50.428Z,1528.00
2018-08-12T08:10:50.381Z,1584.00
2018-08-12T08:11:50.413Z,1640.00
2018-08-12T08:12:50.368Z,1672.00
2018-08-12T08:13:50.347Z,1708.00
2018-08-12T08:14:50.333Z,1740.00
2018-08-12T08:15:50.329Z,1740.00
2018-08-12T08:16:50.364Z,1716.00
2018-08-12T08:17:50.323Z,1660.00
2018-08-12T08:18:50.300Z,1632.00
2018-08-12T08:19:50.440Z,1592.00
2018-08-12T08:20:50.351Z,1560.00
2018-08-12T08:21:50.256Z,1524.00
2018-08-12T08:22:50.260Z,1496.00
2018-08-12T08:23:50.241Z,1484.00
2018-08-12T08:24:50.231Z,1460.00
2018-08-12T08:25:50.301Z,1456.00
2018-08-12T08:26:50.207Z,1416.00
2018-08-12T08:27:50.190Z,1440.00
2018-08-12T08:28:50.189Z,1468.00
2018-08-12T08:29:50.236Z,1468.00
2018-08-12T08:30:50.165Z,1432.00
2018-08-12T08:31:50.361Z,1392.00
2018-08-12T08:32:50.198Z,1376.00
2018-08-12T08:33:50.127Z,1368.00
2018-08-12T08:34:50.142Z,1360.00
2018-08-12T08:35:50.112Z,1376.00
2018-08-12T08:36:50.094Z,1432.00
2018-08-12T08:37:50.149Z,1568.00
2018-08-12T08:38:50.070Z,1688.00
2018-08-12T08:39:50.147Z,1700.00
2018-08-12T08:40:50.056Z,1620.00
2018-08-12T08:41:50.071Z,1632.00
2018-08-12T08:42:50.036Z,1660.00
2018-08-12T08:43:50.106Z,1660.00
2018-08-12T08:44:50.000Z,1668.00
2018-08-12T08:45:49.997Z,1720.00
2018-08-12T08:46:49.980Z,1788.00
2018-08-12T08:47:49.997Z,1776.00
2018-08-12T08:48:49.962Z,1804.00
2018-08-12T08:49:50.000Z,1732.00
2018-08-12T08:50:50.015Z,1712.00
2018-08-12T08:51:49.966Z,1732.00
2018-08-12T08:52:49.908Z,1692.00
2018-08-12T08:53:49.908Z,1688.00
2018-08-12T08:54:49.896Z,1608.00
2018-08-12T08:55:49.993Z,1532.00
2018-08-12T08:56:49.896Z,1496.00
2018-08-12T08:57:49.862Z,1464.00
2018-08-12T08:58:49.846Z,1460.00
2018-08-12T08:59:49.844Z,1484.00
2018-08-12T09:00:49.855Z,1536.00
2018-08-12T09:01:49.812Z,1584.00
2018-08-12T09:02:49.808Z,1648.00
2018-08-12T09:03:49.807Z,1696.00
2018-08-12T09:04:49.818Z,1768.00
2018-08-12T09:05:49.975Z,1784.00
2018-08-12T09:06:49.808Z,1724.00
2018-08-12T09:07:49.762Z,1688.00
2018-08-12T09:08:50.008Z,1688.00
2018-08-12T09:09:49.788Z,1672.00
2018-08-12T09:10:49.787Z,1692.00
2018-08-12T09:11:49.805Z,1728.00
2018-08-12T09:12:49.693Z,1796.00
2018-08-12T09:13:49.706Z,1892.00
2018-08-12T09:14:49.726Z,1980.00
2018-08-12T09:15:49.686Z,2052.00
2018-08-12T09:16:49.671Z,2024.00
2018-08-12T09:17:49.640Z,2000.00
2018-08-12T09:18:49.626Z,2012.00
2018-08-12T09:19:50.265Z,2140.00
2018-08-12T09:20:49.662Z,2160.00
2018-08-12T09:21:49.596Z,2208.00
2018-08-12T09:22:49.590Z,2228.00
2018-08-12T09:23:49.617Z,2256.00
2018-08-12T09:24:49.620Z,2344.00
2018-08-12T09:25:49.599Z,2376.00
2018-08-12T09:26:49.535Z,2248.00
2018-08-12T09:27:49.535Z,2260.00
2018-08-12T09:28:49.524Z,2056.00
2018-08-12T09:29:49.504Z,2020.00
2018-08-12T09:30:49.530Z,2104.00
2018-08-12T09:31:49.487Z,2116.00
2018-08-12T09:32:49.470Z,2160.00
2018-08-12T09:33:49.456Z,2088.00
2018-08-12T09:34:49.496Z,1984.00
2018-08-12T09:35:49.443Z,1900.00
2018-08-12T09:36:49.445Z,1876.00
2018-08-12T09:37:49.431Z,1824.00
2018-08-12T09:38:49.402Z,1812.00
2018-08-12T09:39:49.419Z,1768.00
2018-08-12T09:40:49.381Z,1884.00
2018-08-12T09:41:49.415Z,1912.00
2018-08-12T09:42:49.380Z,1920.00
2018-08-12T09:43:49.411Z,1888.00
2018-08-12T09:44:49.418Z,1824.00
2018-08-12T09:45:49.322Z,1848.00
2018-08-12T09:46:49.322Z,1824.00
2018-08-12T09:47:49.321Z,1856.00
2018-08-12T09:48:49.330Z,1896.00
2018-08-12T09:49:49.283Z,1928.00
2018-08-12T09:50:49.264Z,1980.00
2018-08-12T09:51:49.394Z,2024.00
2018-08-12T09:52:49.256Z,2068.00
2018-08-12T09:53:49.315Z,2072.00
2018-08-12T09:54:49.223Z,2048.00
2018-08-12T09:55:49.288Z,1984.00
2018-08-12T09:56:49.244Z,1968.00
2018-08-12T09:57:49.202Z,1956.00
2018-08-12T09:58:49.186Z,2004.00
2018-08-12T09:59:49.177Z,2040.00
2018-08-12T10:00:49.202Z,2056.00
2018-08-12T10:01:49.187Z,2084.00
2018-08-12T10:02:49.172Z,2072.00
2018-08-12T10:03:49.133Z,2096.00
2018-08-12T10:04:49.138Z,2140.00
2018-08-12T10:05:49.099Z,2172.00
2018-08-12T10:06:49.118Z,2164.00
2018-08-12T10:07:49.132Z,2168.00
2018-08-12T10:08:49.080Z,2180.00
2018-08-12T10:09:49.087Z,2112.00
2018-08-12T10:10:49.042Z,2160.00
2018-08-12T10:11:49.036Z,2164.00
2018-08-12T10:12:49.068Z,2284.00
2018-08-12T10:13:49.042Z,2340.00
2018-08-12T10:14:49.005Z,2328.00
2018-08-12T10:15:49.141Z,2288.00
2018-08-12T10:16:49.018Z,2244.00
2018-08-12T10:17:48.994Z,2200.00
2018-08-12T10:18:48.981Z,2140.00
2018-08-12T10:19:48.962Z,2128.00
2018-08-12T10:20:48.987Z,2068.00
2018-08-12T10:21:48.964Z,2088.00
2018-08-12T10:22:48.920Z,2180.00
2018-08-12T10:23:48.903Z,2212.00
2018-08-12T10:24:48.896Z,2192.00
2018-08-12T10:25:48.914Z,2208.00
2018-08-12T10:26:48.876Z,2200.00
2018-08-12T10:27:48.877Z,2228.00
2018-08-12T10:28:48.846Z,2188.00
2018-08-12T10:29:48.836Z,2124.00
2018-08-12T10:30:48.858Z,2104.00
2018-08-12T10:31:48.849Z,2092.00
2018-08-12T10:32:48.816Z,2144.00
2018-08-12T10:33:48.816Z,2204.00
2018-08-12T10:34:48.777Z,2252.00
2018-08-12T10:35:48.776Z,2324.00
2018-08-12T10:36:48.765Z,2328.00
2018-08-12T10:37:48.759Z,2396.00
2018-08-12T10:38:48.771Z,2388.00
2018-08-12T10:39:48.727Z,2320.00
2018-08-12T10:40:48.709Z,2256.00
2018-08-12T10:41:48.707Z,2200.00
2018-08-12T10:42:48.721Z,2168.00
2018-08-12T10:43:48.679Z,2192.00
2018-08-12T10:44:48.710Z,2164.00
2018-08-12T10:45:48.661Z,2132.00
2018-08-12T10:46:48.640Z,2060.00
2018-08-12T10:47:48.740Z,2040.00
2018-08-12T10:48:48.666Z,2060.00
2018-08-12T10:49:48.652Z,2124.00
2018-08-12T10:50:48.661Z,2124.00
2018-08-12T10:51:48.644Z,2128.00
2018-08-12T10:52:48.588Z,2000.00
2018-08-12T10:53:48.571Z,2048.00
2018-08-12T10:54:48.589Z,2068.00
2018-08-12T10:55:48.578Z,2072.00
2018-08-12T10:56:48.565Z,1980.00
2018-08-12T10:57:48.526Z,2056.00
2018-08-12T10:58:48.520Z,2068.00
2018-08-12T10:59:48.498Z,2096.00
2018-08-12T11:00:48.621Z,2132.00
2018-08-12T11:01:48.503Z,2160.00
2018-08-12T11:02:48.468Z,2168.00
2018-08-12T11:03:48.456Z,2200.00
2018-08-12T11:04:48.449Z,2148.00
2018-08-12T11:05:48.466Z,2096.00
2018-08-12T11:06:48.430Z,2148.00
2018-08-12T11:07:48.420Z,2164.00
2018-08-12T11:08:48.410Z,2172.00
2018-08-12T11:09:48.400Z,2236.00
2018-08-12T11:10:48.426Z,2244.00
2018-08-12T11:11:48.379Z,2272.00
2018-08-12T11:12:48.470Z,2300.00
2018-08-12T11:13:48.349Z,2308.00
2018-08-12T11:14:48.342Z,2312.00
2018-08-12T11:15:48.371Z,2260.00
2018-08-12T11:16:48.312Z,2244.00
2018-08-12T11:17:48.312Z,2196.00
2018-08-12T11:18:48.354Z,2220.00
2018-08-12T11:19:48.294Z,2264.00
2018-08-12T11:20:48.299Z,2308.00
2018-08-12T11:21:48.265Z,2356.00
2018-08-12T11:22:48.376Z,2392.00
2018-08-12T11:23:48.247Z,2480.00
2018-08-12T11:24:48.227Z,2584.00
2018-08-12T11:25:48.225Z,2676.00
2018-08-12T11:26:48.204Z,2796.00
2018-08-12T11:27:48.497Z,2872.00
2018-08-12T11:28:48.189Z,2900.00
2018-08-12T11:29:48.216Z,2816.00
2018-08-12T11:30:48.160Z,2732.00
2018-08-12T11:31:48.228Z,2708.00
2018-08-12T11:32:48.322Z,2712.00
2018-08-12T11:33:48.375Z,2768.00
2018-08-12T11:34:48.254Z,2816.00
2018-08-12T11:35:48.107Z,2940.00
2018-08-12T11:36:48.092Z,2980.00
2018-08-12T11:37:48.140Z,3008.00
2018-08-12T11:38:48.081Z,3100.00
2018-08-12T11:39:48.093Z,3064.00
2018-08-12T11:40:48.090Z,3028.00
2018-08-12T11:41:48.039Z,3032.00
2018-08-12T11:42:48.060Z,3020.00
2018-08-12T11:43:48.101Z,3016.00
2018-08-12T11:44:48.006Z,3016.00
2018-08-12T11:45:48.005Z,3084.00
2018-08-12T11:46:47.983Z,3104.00
2018-08-12T11:47:48.003Z,3120.00
2018-08-12T11:48:47.960Z,3196.00
2018-08-12T11:49:47.983Z,3316.00
2018-08-12T11:50:47.964Z,3440.00
2018-08-12T11:51:47.930Z,3480.00
2018-08-12T11:52:47.913Z,3440.00
2018-08-12T11:53:47.912Z,3388.00
2018-08-12T11:54:47.925Z,3348.00
2018-08-12T11:55:47.912Z,3316.00
2018-08-12T11:56:47.873Z,3284.00
2018-08-12T11:57:47.868Z,3208.00
2018-08-12T11:58:47.883Z,3308.00
2018-08-12T11:59:47.834Z,3320.00
2018-08-12T12:00:47.865Z,3424.00
2018-08-12T12:01:47.831Z,3460.00
2018-08-12T12:02:47.820Z,3392.00
2018-08-12T12:03:47.796Z,3480.00
2018-08-12T12:04:47.782Z,3808.00
2018-08-12T12:05:47.805Z,3996.00
2018-08-12T12:06:47.774Z,4168.00
2018-08-12T12:07:47.783Z,4180.00
2018-08-12T12:08:47.747Z,4072.00
2018-08-12T12:09:47.726Z,4196.00
2018-08-12T12:10:47.755Z,4332.00
2018-08-12T12:11:47.708Z,4480.00
2018-08-12T12:12:47.696Z,4604.00
2018-08-12T12:13:47.684Z,4584.00
2018-08-12T12:14:47.674Z,4656.00
2018-08-12T12:15:47.697Z,4576.00
2018-08-12T12:16:47.659Z,4584.00
2018-08-12T12:17:47.638Z,4636.00
2018-08-12T12:18:47.641Z,4688.00
2018-08-12T12:19:47.642Z,4664.00
2018-08-12T12:20:47.630Z,4700.00
2018-08-12T12:21:47.600Z,4760.00
2018-08-12T12:22:47.692Z,4868.00
2018-08-12T12:23:47.601Z,4956.00
2018-08-12T12:24:47.565Z,5080.00
2018-08-12T12:25:47.580Z,5276.00
2018-08-12T12:26:47.546Z,5404.00
2018-08-12T12:27:47.572Z,5396.00
2018-08-12T12:28:47.523Z,5336.00
2018-08-12T12:29:47.505Z,5172.00
2018-08-12T12:30:47.505Z,5136.00
2018-08-12T12:31:47.512Z,5076.00
2018-08-12T12:32:47.504Z,5116.00